Kezdőlap
METAR-TAF:

METAR-TAF

Repülőterek :

Repulse Bay, Nunavut, Kanada

földrajzi szélesség: 66-32N, földrajzi hosszúság: 086-15W, magasság: 24 m

Jelenlegi meteorológiai megfigyelések

A jelentés 12 órával és 40 perccel ezelõtt készült, 20:00 UTC
Dél-délkeleti szél 7 kt
Hőmérséklet 9°C
Páratartalom 71%
Légköri nyomás 1008 hPa
Látótávolság: 24.1 km
Derült ég

METAR: CYUT 092000Z 15007KT 15SM SKC 09/04 A2976 RMK LAST STFD OBS/NXT 101200Z SLP082

Idő: 03:40 (08:40 UTC)

Előrejelzés

A jelentés 17 órával és 2 perccel ezelõtt készült, 15:38 UTC
Az előrejelzés 09-én 16 óra UTC és 09-én 20 óra UTC között érvényes
Dél-délkeleti szél 5 kt
Látótávolság: 10 km
Derült ég

TAF: CYUT 091538Z 0916/0920 16005KT P6SM SKC RMK NXT FCST WILL BE ISSUED AT 101345Z

Meteorológiai megfigyelések és előrejelzések több, mint 4000 repülőtéren (METAR és TAF jelentéseket).

A térképen piros és sárga pontok jelzik az elérhető meteorológiai állomásokat.

Mozgassa az egeret a pont fölött, hogy megjelenjen az állomás neve.

Azután kattintson az időjárási megfigyelések és előrejelzések megtekintéséhez.

A térkép megváltoztatása: kattintson a fekete keresztel jelölt zöld gombra ráközelítéshez, a vonallal jelölt zöld gombra távolításhoz, vagy a zöld nyilakra a szomszédos térképek eléréséhez.


METAR-TAF: